KCAR/CAR METAR and TAF weather

Enter ICAO airport designator
Station Type Date Time Source
KCAR METAR 2018/06/25 01:54 UTC NOAA

KCAR 250154Z AUTO 02004KT 10SM -RA SCT080 OVC095 14/11 A2988 RMK AO2 SLP123 P0001 T01390111


Station Type Date Time Source
KCAR Decoded METAR 2018/06/25 01:54 UTC NOAA

CARIBOU MUNICIPAL AIRPORT, ME, United States (KCAR) 46-52N 68-01W 191M
Jun 24, 2018 - 09:54 PM EDT / 2018.06.25 0154 UTC
Wind: from the NNE (020 degrees) at 5 MPH (4 KT):0
Visibility: 10 mile(s):0
Sky conditions: overcast
Weather: light rain
Precipitation last hour: 0.01 inches
Temperature: 57.0 F (13.9 C)
Dew Point: 52.0 F (11.1 C)
Relative Humidity: 83%
Pressure (altimeter): 29.88 in. Hg (1011 hPa)
ob: KCAR 250154Z AUTO 02004KT 10SM -RA SCT080 OVC095 14/11 A2988 RMK AO2 SLP123 P0001 T01390111
cycle: 2

Station Type Date Time Source
KCAR TAF 2018/06/24 18:22 UTC NOAA

TAF KCAR 241720Z 2418/2518 32007KT P6SM VCSH BKN060
FM250300 02004KT 3SM -RA OVC015
FM250500 02004KT 3SM -RA BKN008 OVC015
FM251000 05004KT P6SM VCSH BKN015
FM251500 05007KT P6SM SCT200


Example: see airport list